createdAt,value
2018-01-27T00:01:04.675Z,724.17
2018-01-27T00:03:40.844Z,704.38
2018-01-27T00:06:22.222Z,722.83
2018-01-27T00:08:54.922Z,710.85
2018-01-27T00:11:26.253Z,664.13
2018-01-27T00:14:04.413Z,667.70
2018-01-27T00:19:19.158Z,558.55
2018-01-27T00:21:48.971Z,600.83
2018-01-27T00:24:28.718Z,573.17
2018-01-27T00:27:17.660Z,511.12
2018-01-27T00:35:05.067Z,405.65
2018-01-27T00:37:40.118Z,444.33
2018-01-27T00:40:15.750Z,524.50
2018-01-27T00:43:05.396Z,488.50
2018-01-27T00:51:15.788Z,559.47
2018-01-27T00:53:52.395Z,585.87
2018-01-27T00:56:31.070Z,559.70
2018-01-27T01:05:21.817Z,514.97
2018-01-27T01:08:00.681Z,488.40
2018-01-27T01:10:29.987Z,502.83
2018-01-27T01:13:01.946Z,459.13
2018-01-27T01:15:36.872Z,440.27
2018-01-27T01:18:13.751Z,472.23
2018-01-27T01:20:48.376Z,523.47
2018-01-27T01:26:07.837Z,505.10
2018-01-27T01:28:36.346Z,487.02
2018-01-27T01:31:34.524Z,467.90
2018-01-27T01:34:08.029Z,528.58
2018-01-27T02:02:41.601Z,408.73
2018-01-27T02:08:24.631Z,452.13
2018-01-27T02:14:18.358Z,432.45
2018-01-27T02:19:45.061Z,423.13
2018-01-27T02:22:22.752Z,407.45
2018-01-27T02:25:11.206Z,424.83
2018-01-27T02:27:50.003Z,368.65
2018-01-27T02:30:39.353Z,408.65
2018-01-27T02:33:19.423Z,396.83
2018-01-27T02:35:58.962Z,388.27
2018-01-27T02:44:50.470Z,408.95
2018-01-27T02:50:47.498Z,363.60
2018-01-27T02:53:21.513Z,346.25
2018-01-27T03:01:22.406Z,368.75
2018-01-27T03:13:23.516Z,457.25
2018-01-27T03:19:33.290Z,436.35
2018-01-27T03:22:05.969Z,425.70
2018-01-27T03:24:45.104Z,427.75
2018-01-27T03:27:23.976Z,375.13
2018-01-27T03:30:02.539Z,376.75
2018-01-27T03:32:48.837Z,392.50
2018-01-27T03:35:54.029Z,367.10
2018-01-27T03:38:40.181Z,391.92
2018-01-27T03:41:21.196Z,380.83
2018-01-27T03:44:03.177Z,370.95
2018-01-27T03:46:36.422Z,370.92
2018-01-27T03:52:10.063Z,379.00
2018-01-27T03:54:43.020Z,369.60
2018-01-27T03:57:16.801Z,330.17
2018-01-27T04:00:01.631Z,313.15
2018-01-27T04:02:38.343Z,298.92
2018-01-27T04:05:16.445Z,296.05
2018-01-27T04:07:47.842Z,262.67
2018-01-27T04:10:22.176Z,250.77
2018-01-27T04:12:58.904Z,285.65
2018-01-27T04:15:43.259Z,252.40
2018-01-27T04:21:04.388Z,265.92
2018-01-27T04:23:38.394Z,244.45
2018-01-27T04:26:25.105Z,242.13
2018-01-27T04:35:15.794Z,273.83
2018-01-27T04:37:53.562Z,282.08
2018-01-27T04:52:43.191Z,273.77
2018-01-27T04:58:47.825Z,276.50
2018-01-27T05:01:33.524Z,266.20
2018-01-27T05:04:20.219Z,278.30
2018-01-27T05:06:57.922Z,262.38
2018-01-27T05:09:40.767Z,291.88
2018-01-27T05:12:13.875Z,272.88
2018-01-27T05:14:53.629Z,271.92
2018-01-27T05:17:32.951Z,285.48
2018-01-27T05:20:08.766Z,293.20
2018-01-27T05:22:53.670Z,258.87
2018-01-27T05:25:33.893Z,246.98
2018-01-27T05:28:17.951Z,259.73
2018-01-27T05:30:46.499Z,241.12
2018-01-27T05:33:14.702Z,259.37
2018-01-27T05:35:42.453Z,280.98
2018-01-27T05:38:10.540Z,291.23
2018-01-27T05:40:38.307Z,297.02
2018-01-27T05:43:06.096Z,309.60
2018-01-27T05:45:33.746Z,310.55
2018-01-27T05:48:02.496Z,359.40
2018-01-27T05:50:30.153Z,354.77
2018-01-27T05:52:59.044Z,363.02
2018-01-27T05:55:26.855Z,328.35
2018-01-27T05:57:55.757Z,376.00
2018-01-27T06:00:23.426Z,377.65
2018-01-27T06:02:51.178Z,306.20
2018-01-27T06:05:19.366Z,333.00
2018-01-27T06:07:47.849Z,365.65
2018-01-27T06:10:15.748Z,375.50
2018-01-27T06:12:47.354Z,383.55
2018-01-27T06:15:16.805Z,336.15
2018-01-27T06:17:45.245Z,295.02
2018-01-27T06:20:13.453Z,302.80
2018-01-27T06:22:42.517Z,326.40
2018-01-27T06:25:11.071Z,335.23
2018-01-27T06:27:39.004Z,378.50
2018-01-27T06:30:08.492Z,382.35
2018-01-27T06:32:38.176Z,383.60
2018-01-27T06:35:07.289Z,383.25
2018-01-27T06:37:35.159Z,354.02
2018-01-27T06:40:03.721Z,330.33
2018-01-27T06:42:33.404Z,315.33
2018-01-27T06:45:05.804Z,282.83
2018-01-27T06:47:34.597Z,278.17
2018-01-27T06:50:03.016Z,287.58
2018-01-27T06:52:31.713Z,254.77
2018-01-27T06:54:59.465Z,269.75
2018-01-27T06:57:27.001Z,275.83
2018-01-27T06:59:54.716Z,274.40
2018-01-27T07:02:22.646Z,285.97
2018-01-27T07:04:50.181Z,289.80
2018-01-27T07:07:18.076Z,273.97
2018-01-27T07:09:45.636Z,286.53
2018-01-27T07:12:13.428Z,309.20
2018-01-27T07:14:40.958Z,303.80
2018-01-27T07:17:08.718Z,318.57
2018-01-27T07:19:36.364Z,296.37
2018-01-27T07:22:04.307Z,296.20
2018-01-27T07:24:31.824Z,304.07
2018-01-27T07:26:59.370Z,291.83
2018-01-27T07:29:26.959Z,285.33
2018-01-27T07:31:55.434Z,263.13
2018-01-27T07:34:26.884Z,282.13
2018-01-27T07:36:55.524Z,274.20
2018-01-27T07:39:24.862Z,272.17
2018-01-27T07:41:52.573Z,256.80
2018-01-27T07:44:21.096Z,260.30
2018-01-27T07:46:50.076Z,260.10
2018-01-27T07:49:21.565Z,261.50
2018-01-27T07:51:49.196Z,244.63
2018-01-27T07:54:16.844Z,229.50
2018-01-27T07:56:44.621Z,212.47
2018-01-27T07:59:12.368Z,185.60
2018-01-27T08:01:39.909Z,192.27
2018-01-27T08:04:07.692Z,163.50
2018-01-27T08:06:35.368Z,172.23
2018-01-27T08:09:02.945Z,162.33
2018-01-27T08:11:30.673Z,157.67
2018-01-27T08:13:58.189Z,146.67
2018-01-27T08:16:25.733Z,155.90
2018-01-27T08:18:53.426Z,160.40
2018-01-27T08:21:21.071Z,151.90
2018-01-27T08:23:49.374Z,154.47
2018-01-27T08:26:16.926Z,147.20
2018-01-27T08:28:44.481Z,128.27
2018-01-27T08:31:12.016Z,126.33
2018-01-27T08:33:39.596Z,137.73
2018-01-27T08:36:07.293Z,153.37
2018-01-27T08:38:34.826Z,149.10
2018-01-27T08:41:02.451Z,155.97
2018-01-27T08:43:30.031Z,162.37
2018-01-27T08:45:57.849Z,177.93
2018-01-27T08:48:26.345Z,166.63
2018-01-27T08:50:53.908Z,174.77
2018-01-27T08:53:21.591Z,158.03
2018-01-27T08:55:49.160Z,151.57
2018-01-27T08:58:16.707Z,150.63
2018-01-27T09:00:45.112Z,161.97
2018-01-27T09:03:13.583Z,162.37
2018-01-27T09:05:41.159Z,166.97
2018-01-27T09:08:08.809Z,172.97
2018-01-27T09:10:36.718Z,165.70
2018-01-27T09:13:04.385Z,167.13
2018-01-27T09:15:32.231Z,192.10
2018-01-27T09:18:00.192Z,189.23
2018-01-27T09:20:28.340Z,193.77
2018-01-27T09:22:55.876Z,214.87
2018-01-27T09:25:23.642Z,223.93
2018-01-27T09:27:51.730Z,220.43
2018-01-27T09:30:19.437Z,207.93
2018-01-27T09:32:47.026Z,192.80
2018-01-27T09:35:14.619Z,209.83
2018-01-27T09:37:44.923Z,205.37
2018-01-27T09:40:12.560Z,184.30
2018-01-27T09:42:40.364Z,184.70
2018-01-27T09:45:08.004Z,175.10
2018-01-27T09:47:35.604Z,189.50
2018-01-27T09:50:03.234Z,194.27
2018-01-27T09:52:30.761Z,199.93
2018-01-27T09:54:58.460Z,181.83
2018-01-27T09:57:26.119Z,170.17
2018-01-27T09:59:53.697Z,182.60
2018-01-27T10:02:21.341Z,184.57
2018-01-27T10:04:48.927Z,182.80
2018-01-27T10:07:16.608Z,192.73
2018-01-27T10:09:45.161Z,175.97
2018-01-27T10:12:12.769Z,165.53
2018-01-27T10:14:40.371Z,187.37
2018-01-27T10:17:07.942Z,184.37
2018-01-27T10:19:35.639Z,166.83
2018-01-27T10:22:03.196Z,196.43
2018-01-27T10:24:30.736Z,183.77
2018-01-27T10:26:58.261Z,158.40
2018-01-27T10:29:25.916Z,179.13
2018-01-27T10:31:53.456Z,181.30
2018-01-27T10:34:21.041Z,170.47
2018-01-27T10:36:48.718Z,162.87
2018-01-27T10:39:16.235Z,165.53
2018-01-27T10:41:43.784Z,150.90
2018-01-27T10:44:11.336Z,158.63
2018-01-27T10:46:39.219Z,161.53
2018-01-27T10:49:06.923Z,187.87
2018-01-27T10:51:34.479Z,156.30
2018-01-27T10:54:02.074Z,163.53
2018-01-27T10:56:29.976Z,156.43
2018-01-27T10:58:57.533Z,156.60
2018-01-27T11:01:25.087Z,149.70
2018-01-27T11:03:52.610Z,143.30
2018-01-27T11:06:20.329Z,137.57
2018-01-27T11:08:47.860Z,294.77
2018-01-27T11:11:15.393Z,154.33
2018-01-27T11:13:42.940Z,163.97
2018-01-27T11:16:10.797Z,158.63
2018-01-27T11:18:38.465Z,175.80
2018-01-27T11:21:05.985Z,159.23
2018-01-27T11:23:33.505Z,168.60
2018-01-27T11:26:01.032Z,157.27
2018-01-27T11:28:28.562Z,163.87
2018-01-27T11:30:56.246Z,165.90
2018-01-27T11:33:23.780Z,157.43
2018-01-27T11:35:51.318Z,181.63
2018-01-27T11:38:18.860Z,182.60
2018-01-27T11:40:46.376Z,151.30
2018-01-27T11:43:15.012Z,166.60
2018-01-27T11:45:43.071Z,155.97
2018-01-27T11:48:10.735Z,156.97
2018-01-27T11:50:38.318Z,160.70
2018-01-27T11:53:06.007Z,145.43
2018-01-27T11:55:33.720Z,155.30
2018-01-27T11:58:01.613Z,147.03
2018-01-27T12:00:29.312Z,159.90
2018-01-27T12:02:56.897Z,156.87
2018-01-27T12:05:24.457Z,159.87
2018-01-27T12:07:52.004Z,167.60
2018-01-27T12:10:19.553Z,154.50
2018-01-27T12:12:47.232Z,158.27
2018-01-27T12:15:15.024Z,170.63
2018-01-27T12:17:42.556Z,165.40
2018-01-27T12:20:10.118Z,176.73
2018-01-27T12:22:37.649Z,158.83
2018-01-27T12:25:05.335Z,162.20
2018-01-27T12:27:32.877Z,158.93
2018-01-27T12:30:00.432Z,148.47
2018-01-27T12:32:27.988Z,161.60
2018-01-27T12:34:55.583Z,158.87
2018-01-27T12:37:23.245Z,172.03
2018-01-27T12:39:51.038Z,151.07
2018-01-27T12:42:18.576Z,159.90
2018-01-27T12:44:46.214Z,161.97
2018-01-27T12:47:13.781Z,179.77
2018-01-27T12:49:41.472Z,155.60
2018-01-27T12:52:09.191Z,175.83
2018-01-27T12:54:36.749Z,178.43
2018-01-27T12:57:05.500Z,208.10
2018-01-27T12:59:33.026Z,191.77
2018-01-27T13:02:00.584Z,221.90
2018-01-27T13:04:29.048Z,217.27
2018-01-27T13:06:56.713Z,213.07
2018-01-27T13:09:24.282Z,216.60
2018-01-27T13:11:52.222Z,219.53
2018-01-27T13:14:19.741Z,233.67
2018-01-27T13:16:47.252Z,238.33
2018-01-27T13:19:14.917Z,214.77
2018-01-27T13:21:42.445Z,227.93
2018-01-27T13:24:09.963Z,247.27
2018-01-27T13:26:37.493Z,227.70
2018-01-27T13:29:06.018Z,218.97
2018-01-27T13:31:33.575Z,226.20
2018-01-27T13:34:01.110Z,219.40
2018-01-27T13:36:28.817Z,234.40
2018-01-27T13:38:56.380Z,235.27
2018-01-27T13:41:24.604Z,252.67
2018-01-27T13:43:52.137Z,240.73
2018-01-27T13:46:19.675Z,268.80
2018-01-27T13:48:47.336Z,274.43
2018-01-27T13:51:14.891Z,274.07
2018-01-27T13:53:42.410Z,264.93
2018-01-27T13:56:10.165Z,280.50
2018-01-27T13:58:37.706Z,258.47
2018-01-27T14:01:05.371Z,266.27
2018-01-27T14:03:32.921Z,245.23
2018-01-27T14:06:00.465Z,262.40
2018-01-27T14:08:28.232Z,271.63
2018-01-27T14:10:56.088Z,259.67
2018-01-27T14:13:23.780Z,256.10
2018-01-27T14:15:51.296Z,247.63
2018-01-27T14:18:18.846Z,240.90
2018-01-27T14:20:46.478Z,249.50
2018-01-27T14:23:14.014Z,230.30
2018-01-27T14:25:41.670Z,251.93
2018-01-27T14:28:09.208Z,241.40
2018-01-27T14:30:36.995Z,234.23
2018-01-27T14:33:04.535Z,256.57
2018-01-27T14:35:32.098Z,234.07
2018-01-27T14:37:59.637Z,204.30
2018-01-27T14:40:27.163Z,213.67
2018-01-27T14:42:54.839Z,207.77
2018-01-27T14:45:22.384Z,177.43
2018-01-27T14:47:49.909Z,184.90
2018-01-27T14:50:17.442Z,210.90
2018-01-27T14:52:45.090Z,235.23
2018-01-27T14:55:12.782Z,188.27
2018-01-27T14:57:40.327Z,209.37
2018-01-27T18:30:51.280Z,475.70
2018-01-27T18:33:18.917Z,445.37
2018-01-27T18:35:46.963Z,490.80
2018-01-27T18:38:14.651Z,483.13
2018-01-27T18:40:43.474Z,481.43
2018-01-27T18:43:11.009Z,503.67
2018-01-27T18:45:38.592Z,501.80
2018-01-27T18:48:06.999Z,528.53
2018-01-27T18:50:34.900Z,483.73
2018-01-27T18:53:03.484Z,496.87
2018-01-27T18:55:31.118Z,603.72
2018-01-27T18:57:58.700Z,648.13
2018-01-27T19:00:26.383Z,802.78
2018-01-27T19:02:54.025Z,969.72
2018-01-27T19:05:22.512Z,1259.03
2018-01-27T19:07:50.318Z,1374.45
2018-01-27T19:10:17.914Z,1130.35
2018-01-27T19:12:46.192Z,997.30
2018-01-27T19:15:14.021Z,1026.90
2018-01-27T19:17:41.994Z,992.97
2018-01-27T19:20:09.678Z,881.45
2018-01-27T19:22:37.496Z,945.00
2018-01-27T19:25:08.337Z,928.33
2018-01-27T19:27:36.114Z,989.70
2018-01-27T19:30:07.506Z,957.53
2018-01-27T19:32:35.373Z,982.13
2018-01-27T19:35:03.303Z,1070.80
2018-01-27T19:37:31.074Z,891.22
2018-01-27T19:39:58.592Z,860.60
2018-01-27T19:42:27.314Z,942.55
2018-01-27T19:44:55.098Z,994.78
2018-01-27T19:47:22.886Z,956.12
2018-01-27T19:49:50.412Z,882.62
2018-01-27T19:52:18.512Z,864.12
2018-01-27T19:54:46.968Z,860.95
2018-01-27T19:57:14.589Z,916.30
2018-01-27T19:59:42.390Z,799.35
2018-01-27T20:02:09.952Z,768.03
2018-01-27T20:04:37.582Z,859.88
2018-01-27T20:07:06.239Z,800.15
2018-01-27T20:09:33.878Z,929.35
2018-01-27T20:12:01.426Z,1077.88
2018-01-27T20:14:29.010Z,1000.85
2018-01-27T20:16:56.605Z,1118.38
2018-01-27T20:19:24.274Z,1189.32
2018-01-27T20:21:52.105Z,1345.65
2018-01-27T20:24:19.686Z,1245.93
2018-01-27T20:26:47.537Z,1164.07
2018-01-27T20:29:15.353Z,1087.55
2018-01-27T20:31:43.118Z,1236.47
2018-01-27T20:34:11.504Z,1306.30
2018-01-27T20:36:39.192Z,1261.47
2018-01-27T20:39:06.824Z,1225.78
2018-01-27T20:41:34.435Z,1148.10
2018-01-27T20:44:02.057Z,1048.10
2018-01-27T20:46:29.623Z,918.30
2018-01-27T20:48:57.335Z,825.35
2018-01-27T20:51:25.729Z,681.97
2018-01-27T20:53:53.540Z,720.12
2018-01-27T20:56:21.358Z,740.42
2018-01-27T20:58:49.073Z,607.28
2018-01-27T21:01:16.899Z,602.03
2018-01-27T21:03:44.661Z,564.17
2018-01-27T21:06:12.349Z,572.37
2018-01-27T21:08:39.880Z,578.92
2018-01-27T21:11:07.452Z,628.90
2018-01-27T21:13:35.152Z,645.60
2018-01-27T21:16:02.776Z,585.53
2018-01-27T21:18:30.681Z,736.50
2018-01-27T21:20:58.365Z,849.05
2018-01-27T21:23:26.901Z,827.88
2018-01-27T21:25:55.884Z,808.05
2018-01-27T21:30:07.642Z,837.65
2018-01-27T21:32:36.834Z,826.30
2018-01-27T21:35:04.645Z,826.28
2018-01-27T21:37:32.440Z,828.12
2018-01-27T21:40:02.728Z,774.55
2018-01-27T21:42:30.404Z,773.05
2018-01-27T21:44:59.729Z,740.60
2018-01-27T21:47:28.448Z,820.37
2018-01-27T21:49:56.005Z,819.42
2018-01-27T21:52:24.152Z,794.95
2018-01-27T21:54:52.329Z,758.87
2018-01-27T21:57:21.137Z,762.17
2018-01-27T21:59:48.678Z,730.85
2018-01-27T22:02:16.459Z,708.70
2018-01-27T22:04:44.113Z,576.22
2018-01-27T22:07:11.874Z,524.80
2018-01-27T22:09:39.706Z,551.13
2018-01-27T22:12:07.545Z,578.22
2018-01-27T22:14:35.118Z,533.90
2018-01-27T22:17:03.036Z,477.17
2018-01-27T22:19:30.736Z,527.78
2018-01-27T22:21:58.325Z,470.92
2018-01-27T22:24:25.912Z,460.05
2018-01-27T22:26:53.485Z,432.88
2018-01-27T22:29:21.936Z,453.95
2018-01-27T22:31:49.510Z,462.05
2018-01-27T22:34:17.108Z,468.42
2018-01-27T22:36:44.794Z,429.23
2018-01-27T22:39:12.573Z,498.55
2018-01-27T22:41:40.382Z,486.88
2018-01-27T22:44:08.158Z,454.50
2018-01-27T22:46:36.761Z,448.58
2018-01-27T22:49:04.425Z,439.65
2018-01-27T22:51:32.085Z,432.65
2018-01-27T22:54:00.909Z,413.83
2018-01-27T22:56:29.432Z,436.52
2018-01-27T22:58:58.619Z,441.83
2018-01-27T23:04:03.394Z,401.77
2018-01-27T23:09:27.808Z,360.52
2018-01-27T23:11:56.725Z,411.75
2018-01-27T23:14:29.589Z,410.52
2018-01-27T23:17:04.660Z,357.23
2018-01-27T23:19:37.217Z,371.98
2018-01-27T23:22:15.390Z,394.62
2018-01-27T23:24:48.443Z,373.15
2018-01-27T23:27:30.383Z,362.42
2018-01-27T23:30:09.810Z,389.05
2018-01-27T23:32:39.195Z,417.67
2018-01-27T23:35:07.116Z,412.67
2018-01-27T23:37:52.471Z,399.83
2018-01-27T23:40:20.486Z,402.42
2018-01-27T23:42:48.119Z,397.45
2018-01-27T23:45:17.145Z,405.05
2018-01-27T23:47:51.087Z,365.42
2018-01-27T23:50:19.541Z,349.77
2018-01-27T23:52:48.925Z,353.50
2018-01-27T23:55:37.869Z,377.40
2018-01-27T23:58:15.136Z,403.35
